Time;durP1;ratioP1;P1;durP2;ratioP2;P2;SDS_P1;SDS_P2;PMS_P1;PMS_P2;Temp;Humidity;BMP_temperature;BMP_pressure;BME280_temperature;BME280_humidity;BME280_pressure;Samples;Min_cycle;Max_cycle;Signal;HPM_P1;HPM_P2
2021/01/07 11:43:55;;;;;;;;;;;3.00;99.90;;;;;;5058171;28;20436;-86
2021/01/07 11:46:22;;;;;;;;;;;3.00;99.90;;;;;;5054774;28;19924;-87
2021/01/07 11:48:57;;;;;;;;;;;3.10;99.90;;;;;;5054290;28;19921;-86
2021/01/07 11:54:09;;;;;;;;;;;3.10;99.90;;;;;;5105404;22;19936;-86
2021/01/07 11:56:38;;;;;;;;;;;3.10;99.90;;;;;;5071266;28;19937;-87
2021/01/07 11:59:04;;;;;;;;;;;3.00;99.90;;;;;;5070716;28;20278;-87
2021/01/07 12:01:32;;;;;;;;;;;3.00;99.90;;;;;;5068040;28;20043;-86
2021/01/07 12:03:58;;;;;;;;;;;3.10;99.90;;;;;;5062154;28;19912;-86
2021/01/07 12:06:28;;;;;;;;;;;3.10;99.90;;;;;;5071070;28;19912;-87
2021/01/07 12:09:04;;;;;;;;;;;3.10;99.90;;;;;;5069883;28;19913;-87
2021/01/07 12:11:35;;;;;;;;;;;3.10;99.90;;;;;;5071468;28;19979;-87
2021/01/07 12:14:13;;;;;;;;;;;3.10;99.90;;;;;;5070940;28;19912;-87
2021/01/07 12:16:53;;;;;;;;;;;3.10;99.90;;;;;;5281105;22;19982;-87
2021/01/07 12:19:23;;;;;;;;;;;3.20;99.90;;;;;;5153152;22;20015;-86
2021/01/07 12:21:49;;;;;;;;;;;3.20;99.90;;;;;;5264570;22;20309;-87
2021/01/07 12:24:16;;;;;;;;;;;3.20;99.90;;;;;;5156646;22;19933;-86
2021/01/07 12:26:44;;;;;;;;;;;3.20;99.90;;;;;;5038696;28;19913;-86
2021/01/07 13:23:09;;;;;;;;;;;3.10;99.90;;;;;;5051325;22;20126;-88
2021/01/07 13:25:36;;;;;;;;;;;3.20;99.90;;;;;;5067749;28;19928;-87
2021/01/07 13:28:07;;;;;;;;;;;3.10;99.90;;;;;;5069504;28;19917;-86
2021/01/07 13:33:36;;;;;;;;;;;3.10;99.90;;;;;;5070893;28;19967;-87
2021/01/07 13:36:02;;;;;;;;;;;3.10;99.90;;;;;;5069576;28;19966;-88
2021/01/07 13:38:31;;;;;;;;;;;3.00;99.90;;;;;;5068985;28;20328;-87
2021/01/07 13:41:01;;;;;;;;;;;3.10;99.90;;;;;;5069906;28;19923;-88
2021/01/07 14:02:35;;;;;;;;;;;3.10;99.90;;;;;;5066838;22;20009;-87
2021/01/07 14:05:02;;;;;;;;;;;3.10;99.90;;;;;;5038878;28;19916;-86
2021/01/07 14:07:41;;;;;;;;;;;3.10;99.90;;;;;;5034279;28;20416;-87
2021/01/07 14:12:53;;;;;;;;;;;3.00;99.90;;;;;;5206501;22;19940;-87
2021/01/07 14:15:21;;;;;;;;;;;3.00;99.90;;;;;;5164211;22;19966;-88
2021/01/07 14:23:11;;;;;;;;;;;3.00;99.90;;;;;;5262912;22;19929;-87
2021/01/07 14:25:37;;;;;;;;;;;3.00;99.90;;;;;;5163614;22;20055;-87
2021/01/07 14:28:06;;;;;;;;;;;3.00;99.90;;;;;;5032169;28;20015;-86
2021/01/07 14:30:33;;;;;;;;;;;3.00;99.90;;;;;;5031948;28;19921;-87
2021/01/07 14:32:59;;;;;;;;;;;2.90;99.90;;;;;;5052280;28;19916;-87
2021/01/07 14:35:29;;;;;;;;;;;2.90;99.90;;;;;;5036234;28;20043;-88
2021/01/07 14:37:57;;;;;;;;;;;2.90;99.90;;;;;;5272229;22;19935;-87
2021/01/07 14:40:25;;;;;;;;;;;2.90;99.90;;;;;;5160282;22;19929;-87
2021/01/07 14:42:55;;;;;;;;;;;2.90;99.90;;;;;;5052450;28;20363;-87
2021/01/07 14:45:24;;;;;;;;;;;2.90;99.90;;;;;;5052131;28;19967;-86
2021/01/07 14:47:52;;;;;;;;;;;2.90;99.90;;;;;;5052259;28;19909;-86
2021/01/07 14:50:20;;;;;;;;;;;2.80;99.90;;;;;;5052576;28;19974;-87
2021/01/07 15:18:03;;;;;;;;;;;2.70;99.90;;;;;;5030949;22;19942;-87
2021/01/07 15:20:31;;;;;;;;;;;2.70;99.90;;;;;;5051473;28;19940;-87
2021/01/07 15:23:35;;;;;;;;;;;2.70;99.90;;;;;;5043286;28;20011;-87
2021/01/07 15:26:06;;;;;;;;;;;2.60;99.90;;;;;;4965159;28;19957;-87
2021/01/07 15:28:33;;;;;;;;;;;2.60;99.90;;;;;;4984129;28;19920;-87
2021/01/07 15:31:06;;;;;;;;;;;2.60;99.90;;;;;;5040489;28;20450;-87
2021/01/07 15:33:35;;;;;;;;;;;2.50;99.90;;;;;;5035289;28;20458;-86
2021/01/07 15:36:02;;;;;;;;;;;2.50;99.90;;;;;;5035063;28;20450;-86
2021/01/07 15:39:03;;;;;;;;;;;2.50;99.90;;;;;;5034772;28;19978;-86
2021/01/07 15:41:48;;;;;;;;;;;2.50;99.90;;;;;;5257918;22;20177;-87
2021/01/07 15:44:20;;;;;;;;;;;2.50;99.90;;;;;;5612941;22;19923;31
2021/01/07 15:50:00;;;;;;;;;;;2.40;99.90;;;;;;5645838;22;20125;-88
2021/01/07 15:52:29;;;;;;;;;;;2.40;99.90;;;;;;5429665;22;19925;-87
2021/01/07 16:03:05;;;;;;;;;;;2.40;99.90;;;;;;5458449;22;19981;-88
2021/01/07 16:05:34;;;;;;;;;;;2.30;99.90;;;;;;5525275;22;19983;-86
2021/01/07 16:10:35;;;;;;;;;;;2.30;99.90;;;;;;5740018;22;20233;-87
2021/01/07 17:04:04;;;;;;;;;;;2.10;99.90;;;;;;733598;22;20190;-85
2021/01/07 17:11:36;;;;;;;;;;;2.10;99.90;;;;;;5029459;28;20363;-86
2021/01/07 17:17:18;;;;;;;;;;;2.10;99.90;;;;;;5040599;22;20252;-86
2021/01/07 17:22:19;;;;;;;;;;;2.00;99.90;;;;;;5172778;22;19928;-86
2021/01/07 17:24:44;;;;;;;;;;;2.00;99.90;;;;;;5161861;22;20398;-86
2021/01/07 17:29:52;;;;;;;;;;;2.00;99.90;;;;;;5524817;22;20313;-87
2021/01/07 17:32:22;;;;;;;;;;;1.90;99.90;;;;;;5735225;22;20849;-87
2021/01/07 17:37:28;;;;;;;;;;;2.00;99.90;;;;;;5943043;22;19954;-86
2021/01/07 18:47:47;;;;;;;;;;;1.80;99.90;;;;;;5669762;22;20975;31
2021/01/07 18:50:16;;;;;;;;;;;1.80;99.90;;;;;;5254328;22;20162;-88
2021/01/07 18:52:49;;;;;;;;;;;1.80;99.90;;;;;;5073669;28;19916;-89
2021/01/07 18:55:17;;;;;;;;;;;1.70;99.90;;;;;;5055835;28;19916;-89
2021/01/07 18:57:44;;;;;;;;;;;1.80;99.90;;;;;;5192808;22;19932;-87
2021/01/07 19:07:54;;;;;;;;;;;1.70;99.90;;;;;;5327205;22;19982;-91
